KMOX/MOX METAR and TAF weather

Enter ICAO airport designator
Station Type Date Time Source
KMOX METAR 2020/08/11 19:15 UTC NOAA

KMOX 111915Z AUTO 21008KT 10SM CLR 27/11 A2997 RMK AO2


Station Type Date Time Source
KMOX Decoded METAR 2020/08/11 19:15 UTC NOAA

Morris, Morris Municipal Airport, MN, United States (KMOX) 45-34N 095-58W
Aug 11, 2020 - 03:15 PM EDT / 2020.08.11 1915 UTC
Wind: from the SSW (210 degrees) at 9 MPH (8 KT):0
Visibility: 10 mile(s):0
Sky conditions: clear
Temperature: 80 F (27 C)
Dew Point: 51 F (11 C)
Relative Humidity: 36%
Pressure (altimeter): 29.97 in. Hg (1014 hPa)
ob: KMOX 111915Z AUTO 21008KT 10SM CLR 27/11 A2997 RMK AO2
cycle: 19

Station Type Date Time Source
KMOX TAF UTC NOAA

Error!

Example: see airport list